Hauptseite
METAR-TAF:

METAR-TAF

Flughäfen :

Hagerstown, Maryland, Vereinigte Staaten

Breite: 39-42-21N, Länge: 077-43-48W, Höhe: 214 m

Beobachtung

Neuester Wetterbericht von vor 28 Minuten, um 19:53 UTC
Wind 20 kt aus Nordwest, Böen bis zu 25 kt
Temperatur 18°C
Luftfeuchtigkeit 32%
Luftdruck 1009 hPa
Sichtweite: 16.1 km
Himmel klar

METAR: KHGR 031953Z 32020G25KT 10SM CLR 18/01 A2980 RMK AO2 PK WND 32026/1936 SLP100 T01780006

Zeit: 16:21 (20:21 UTC)


TAF: fehlend

Wetterbeobachtungen und Prognosen von mehr als 4000 Flughäfen (METAR und TAF Bericht).

Die verfügbaren Stationen werden durch gelbe und rote Markierungen auf der Karte dargestellt.

Führen Sie die Maus auf sie, um den Namen der Station zu sehen.

Darauf klicken, um die Beobachtung von Wetterbeobachtungen und Prognosen zu sehen.

Um die Karte zu ändern : klicken Sie auf den grünen Tasten mit einem schwarzen Kreuz Zum Vergrößern, auf den grünen Button mit einem Gedankenstrich zu verkleinern, oder auf die grünen Pfeile für benachbarte Karten.


METAR-TAF: